sensor_id;sensor_type;location;lat;lon;timestamp;pressure;altitude;pressure_sealevel;temperature;humidity
13709;BME280;54933;51.908;7.730;2023-08-01T00:01:57;99244.25;;;24.49;78.17
13709;BME280;54933;51.908;7.730;2023-08-01T00:04:22;99243.97;;;24.50;77.92
13709;BME280;54933;51.908;7.730;2023-08-01T00:06:47;99244.75;;;24.51;77.90
13709;BME280;54933;51.908;7.730;2023-08-01T00:09:12;99232.28;;;24.50;77.98
13709;BME280;54933;51.908;7.730;2023-08-01T00:11:38;99235.81;;;24.50;77.94
13709;BME280;54933;51.908;7.730;2023-08-01T00:14:03;99239.34;;;24.51;77.95
13709;BME280;54933;51.908;7.730;2023-08-01T00:16:28;99234.19;;;24.49;78.04
13709;BME280;54933;51.908;7.730;2023-08-01T00:18:53;99232.28;;;24.50;77.93
13709;BME280;54933;51.908;7.730;2023-08-01T00:21:19;99227.69;;;24.50;77.91
13709;BME280;54933;51.908;7.730;2023-08-01T00:23:44;99223.03;;;24.51;77.89
13709;BME280;54933;51.908;7.730;2023-08-01T00:26:09;99224.97;;;24.50;77.92
13709;BME280;54933;51.908;7.730;2023-08-01T00:28:34;99209.75;;;24.49;78.06
13709;BME280;54933;51.908;7.730;2023-08-01T00:31:04;99207.84;;;24.50;78.04
13709;BME280;54933;51.908;7.730;2023-08-01T00:33:29;99198.09;;;24.49;78.07
13709;BME280;54933;51.908;7.730;2023-08-01T00:35:54;99207.84;;;24.50;78.00
13709;BME280;54933;51.908;7.730;2023-08-01T00:38:19;99208.94;;;24.49;77.96
13709;BME280;54933;51.908;7.730;2023-08-01T00:40:45;99192.66;;;24.49;77.93
13709;BME280;54933;51.908;7.730;2023-08-01T00:43:10;99200.81;;;24.49;77.94
13709;BME280;54933;51.908;7.730;2023-08-01T00:45:35;99192.66;;;24.49;77.81
13709;BME280;54933;51.908;7.730;2023-08-01T00:48:01;99186.41;;;24.48;77.68
13709;BME280;54933;51.908;7.730;2023-08-01T00:50:26;99168.50;;;24.47;78.01
13709;BME280;54933;51.908;7.730;2023-08-01T00:52:52;99168.50;;;24.47;77.80
13709;BME280;54933;51.908;7.730;2023-08-01T00:55:18;99173.94;;;24.47;77.91
13709;BME280;54933;51.908;7.730;2023-08-01T00:57:43;99168.50;;;24.47;77.80
13709;BME280;54933;51.908;7.730;2023-08-01T01:00:09;99165.78;;;24.47;77.80
13709;BME280;54933;51.908;7.730;2023-08-01T01:02:35;99163.06;;;24.47;77.79
13709;BME280;54933;51.908;7.730;2023-08-01T01:05:01;99163.06;;;24.47;77.68
13709;BME280;54933;51.908;7.730;2023-08-01T01:07:29;99165.78;;;24.47;77.70
13709;BME280;54933;51.908;7.730;2023-08-01T01:09:54;99158.41;;;24.48;77.60
13709;BME280;54933;51.908;7.730;2023-08-01T01:12:19;99158.41;;;24.48;77.64
13709;BME280;54933;51.908;7.730;2023-08-01T01:14:44;99163.84;;;24.48;77.53
13709;BME280;54933;51.908;7.730;2023-08-01T01:17:10;99147.03;;;24.46;77.62
13709;BME280;54933;51.908;7.730;2023-08-01T01:19:35;99147.03;;;24.46;77.59
13709;BME280;54933;51.908;7.730;2023-08-01T01:22:02;99137.81;;;24.47;77.59
13709;BME280;54933;51.908;7.730;2023-08-01T01:24:28;99145.94;;;24.47;77.71
13709;BME280;54933;51.908;7.730;2023-08-01T01:26:56;99139.69;;;24.46;77.65
13709;BME280;54933;51.908;7.730;2023-08-01T01:29:23;99131.81;;;24.45;77.45
13709;BME280;54933;51.908;7.730;2023-08-01T01:31:49;99128.84;;;24.46;77.57
13709;BME280;54933;51.908;7.730;2023-08-01T01:34:15;99121.50;;;24.47;77.23
13709;BME280;54933;51.908;7.730;2023-08-01T01:36:40;99113.38;;;24.47;77.54
13709;BME280;54933;51.908;7.730;2023-08-01T01:39:05;99114.19;;;24.47;77.60
13709;BME280;54933;51.908;7.730;2023-08-01T01:41:30;99106.81;;;24.48;77.54
13709;BME280;54933;51.908;7.730;2023-08-01T01:43:56;99108.75;;;24.47;77.56
13709;BME280;54933;51.908;7.730;2023-08-01T01:46:21;99113.09;;;24.48;77.58
13709;BME280;54933;51.908;7.730;2023-08-01T01:48:46;99114.19;;;24.47;77.63
13709;BME280;54933;51.908;7.730;2023-08-01T01:51:12;99109.53;;;24.48;77.65
13709;BME280;54933;51.908;7.730;2023-08-01T01:53:37;99104.41;;;24.46;77.93
13709;BME280;54933;51.908;7.730;2023-08-01T01:56:02;99100.59;;;24.47;77.78
13709;BME280;54933;51.908;7.730;2023-08-01T01:58:27;99097.06;;;24.47;77.88
13709;BME280;54933;51.908;7.730;2023-08-01T02:00:53;99082.38;;;24.48;77.80
13709;BME280;54933;51.908;7.730;2023-08-01T02:03:18;99078.59;;;24.49;77.81
13709;BME280;54933;51.908;7.730;2023-08-01T02:05:44;99079.38;;;24.49;77.71
13709;BME280;54933;51.908;7.730;2023-08-01T02:08:09;99064.19;;;24.48;77.80
13709;BME280;54933;51.908;7.730;2023-08-01T02:10:35;99056.06;;;24.48;78.09
13709;BME280;54933;51.908;7.730;2023-08-01T02:13:00;99058.78;;;24.48;77.90
13709;BME280;54933;51.908;7.730;2023-08-01T02:15:25;99051.72;;;24.47;77.96
13709;BME280;54933;51.908;7.730;2023-08-01T02:17:51;99062.31;;;24.49;77.88
13709;BME280;54933;51.908;7.730;2023-08-01T02:20:16;99068.81;;;24.48;77.74
13709;BME280;54933;51.908;7.730;2023-08-01T02:22:41;99068.81;;;24.48;77.89
13709;BME280;54933;51.908;7.730;2023-08-01T02:25:07;99064.19;;;24.48;77.80
13709;BME280;54933;51.908;7.730;2023-08-01T02:27:32;99069.63;;;24.48;77.84
13709;BME280;54933;51.908;7.730;2023-08-01T02:29:57;99065.03;;;24.49;77.74
13709;BME280;54933;51.908;7.730;2023-08-01T02:32:23;99066.91;;;24.48;77.89
13709;BME280;54933;51.908;7.730;2023-08-01T02:34:48;99055.22;;;24.48;77.94
13709;BME280;54933;51.908;7.730;2023-08-01T02:37:13;99057.94;;;24.48;77.82
13709;BME280;54933;51.908;7.730;2023-08-01T02:39:39;99050.63;;;24.48;77.85
13709;BME280;54933;51.908;7.730;2023-08-01T02:42:04;99049.00;;;24.47;77.86
13709;BME280;54933;51.908;7.730;2023-08-01T02:44:29;99058.22;;;24.46;77.74
13709;BME280;54933;51.908;7.730;2023-08-01T02:46:55;99071.00;;;24.46;77.84
13709;BME280;54933;51.908;7.730;2023-08-01T02:49:20;99061.78;;;24.47;77.96
13709;BME280;54933;51.908;7.730;2023-08-01T02:51:45;99062.06;;;24.45;77.46
13709;BME280;54933;51.908;7.730;2023-08-01T02:54:10;99053.63;;;24.47;77.65
13709;BME280;54933;51.908;7.730;2023-08-01T02:56:36;99061.78;;;24.47;77.61
13709;BME280;54933;51.908;7.730;2023-08-01T02:59:06;99057.41;;;24.46;77.47
13709;BME280;54933;51.908;7.730;2023-08-01T03:01:33;99055.50;;;24.46;77.29
13709;BME280;54933;51.908;7.730;2023-08-01T03:03:58;99058.50;;;24.45;77.53
13709;BME280;54933;51.908;7.730;2023-08-01T03:06:24;99051.97;;;24.46;77.78
13709;BME280;54933;51.908;7.730;2023-08-01T03:08:49;99059.63;;;24.44;77.58
13709;BME280;54933;51.908;7.730;2023-08-01T03:11:14;99063.66;;;24.46;77.46
13709;BME280;54933;51.908;7.730;2023-08-01T03:13:40;99059.63;;;24.44;77.41
13709;BME280;54933;51.908;7.730;2023-08-01T03:16:05;99067.47;;;24.45;77.53
13709;BME280;54933;51.908;7.730;2023-08-01T03:18:30;99066.13;;;24.43;78.03
13709;BME280;54933;51.908;7.730;2023-08-01T03:20:55;99075.91;;;24.44;77.53
13709;BME280;54933;51.908;7.730;2023-08-01T03:23:21;99078.88;;;24.47;77.62
13709;BME280;54933;51.908;7.730;2023-08-01T03:25:46;99075.09;;;24.43;77.54
13709;BME280;54933;51.908;7.730;2023-08-01T03:28:12;99077.53;;;24.45;77.64
13709;BME280;54933;51.908;7.730;2023-08-01T03:30:37;99077.53;;;24.45;77.78
13709;BME280;54933;51.908;7.730;2023-08-01T03:33:03;99075.91;;;24.44;77.50
13709;BME280;54933;51.908;7.730;2023-08-01T03:35:28;99062.84;;;24.46;77.41
13709;BME280;54933;51.908;7.730;2023-08-01T03:37:53;99068.28;;;24.46;77.67
13709;BME280;54933;51.908;7.730;2023-08-01T03:40:18;99062.06;;;24.45;77.49
13709;BME280;54933;51.908;7.730;2023-08-01T03:42:45;99068.03;;;24.47;77.48
13709;BME280;54933;51.908;7.730;2023-08-01T03:45:10;99068.28;;;24.46;77.61
13709;BME280;54933;51.908;7.730;2023-08-01T03:47:35;99064.47;;;24.47;77.65
13709;BME280;54933;51.908;7.730;2023-08-01T03:50:01;99061.78;;;24.47;77.57
13709;BME280;54933;51.908;7.730;2023-08-01T03:52:26;99069.91;;;24.47;77.63
13709;BME280;54933;51.908;7.730;2023-08-01T03:54:55;99072.63;;;24.47;77.65
13709;BME280;54933;51.908;7.730;2023-08-01T03:57:20;99069.09;;;24.46;77.65
13709;BME280;54933;51.908;7.730;2023-08-01T03:59:46;99077.78;;;24.48;77.84
13709;BME280;54933;51.908;7.730;2023-08-01T04:02:12;99073.69;;;24.46;77.84
13709;BME280;54933;51.908;7.730;2023-08-01T04:04:37;99072.63;;;24.47;77.81
13709;BME280;54933;51.908;7.730;2023-08-01T04:07:02;99068.03;;;24.47;77.92
13709;BME280;54933;51.908;7.730;2023-08-01T04:09:28;99069.91;;;24.47;77.84
13709;BME280;54933;51.908;7.730;2023-08-01T04:11:53;99069.91;;;24.47;77.79
13709;BME280;54933;51.908;7.730;2023-08-01T04:14:18;99080.78;;;24.47;77.98
13709;BME280;54933;51.908;7.730;2023-08-01T04:16:44;99074.53;;;24.46;77.87
13709;BME280;54933;51.908;7.730;2023-08-01T04:19:09;99090.81;;;24.46;77.79
13709;BME280;54933;51.908;7.730;2023-08-01T04:21:34;99088.94;;;24.47;77.70
13709;BME280;54933;51.908;7.730;2023-08-01T04:24:00;99093.25;;;24.48;77.88
13709;BME280;54933;51.908;7.730;2023-08-01T04:26:25;99087.81;;;24.48;77.86
13709;BME280;54933;51.908;7.730;2023-08-01T04:28:50;99090.53;;;24.48;77.81
13709;BME280;54933;51.908;7.730;2023-08-01T04:31:16;99091.63;;;24.47;77.84
13709;BME280;54933;51.908;7.730;2023-08-01T04:33:41;99091.63;;;24.47;77.70
13709;BME280;54933;51.908;7.730;2023-08-01T04:36:06;99097.06;;;24.47;77.82
13709;BME280;54933;51.908;7.730;2023-08-01T04:38:31;99094.63;;;24.45;77.77
13709;BME280;54933;51.908;7.730;2023-08-01T04:40:57;99098.13;;;24.46;77.83
13709;BME280;54933;51.908;7.730;2023-08-01T04:43:22;99092.19;;;24.44;77.74
13709;BME280;54933;51.908;7.730;2023-08-01T04:45:47;99097.63;;;24.44;77.75
13709;BME280;54933;51.908;7.730;2023-08-01T04:48:12;99104.69;;;24.45;77.75
13709;BME280;54933;51.908;7.730;2023-08-01T04:50:38;99104.13;;;24.43;77.87
13709;BME280;54933;51.908;7.730;2023-08-01T04:53:03;99107.69;;;24.43;77.70
13709;BME280;54933;51.908;7.730;2023-08-01T04:55:29;99108.50;;;24.44;77.51
13709;BME280;54933;51.908;7.730;2023-08-01T04:57:54;99119.34;;;24.44;77.65
13709;BME280;54933;51.908;7.730;2023-08-01T05:00:19;99117.72;;;24.43;77.67
13709;BME280;54933;51.908;7.730;2023-08-01T05:02:45;99116.66;;;24.44;77.64
13709;BME280;54933;51.908;7.730;2023-08-01T05:05:10;99114.50;;;24.41;77.57
13709;BME280;54933;51.908;7.730;2023-08-01T05:07:35;99118.53;;;24.43;77.73
13709;BME280;54933;51.908;7.730;2023-08-01T05:10:00;99120.44;;;24.43;77.38
13709;BME280;54933;51.908;7.730;2023-08-01T05:12:26;99124.78;;;24.44;77.71
13709;BME280;54933;51.908;7.730;2023-08-01T05:14:51;99125.84;;;24.43;77.39
13709;BME280;54933;51.908;7.730;2023-08-01T05:17:16;99134.00;;;24.43;77.50
13709;BME280;54933;51.908;7.730;2023-08-01T05:19:42;99129.41;;;24.43;77.41
13709;BME280;54933;51.908;7.730;2023-08-01T05:22:07;99135.09;;;24.42;77.42
13709;BME280;54933;51.908;7.730;2023-08-01T05:24:32;99137.53;;;24.43;77.38
13709;BME280;54933;51.908;7.730;2023-08-01T05:26:57;99146.50;;;24.44;77.51
13709;BME280;54933;51.908;7.730;2023-08-01T05:29:23;99135.09;;;24.42;77.40
13709;BME280;54933;51.908;7.730;2023-08-01T05:31:48;99145.69;;;24.43;77.40
13709;BME280;54933;51.908;7.730;2023-08-01T05:34:13;99142.69;;;24.45;77.47
13709;BME280;54933;51.908;7.730;2023-08-01T05:36:39;99136.72;;;24.43;77.49
13709;BME280;54933;51.908;7.730;2023-08-01T05:39:04;99143.50;;;24.45;77.49
13709;BME280;54933;51.908;7.730;2023-08-01T05:41:29;99149.22;;;24.44;77.61
13709;BME280;54933;51.908;7.730;2023-08-01T05:43:55;99151.94;;;24.44;77.57
13709;BME280;54933;51.908;7.730;2023-08-01T05:46:20;99149.72;;;24.46;77.64
13709;BME280;54933;51.908;7.730;2023-08-01T05:48:46;99148.94;;;24.45;77.66
13709;BME280;54933;51.908;7.730;2023-08-01T05:51:11;99148.13;;;24.45;77.60
13709;BME280;54933;51.908;7.730;2023-08-01T05:53:36;99153.56;;;24.45;77.73
13709;BME280;54933;51.908;7.730;2023-08-01T05:56:02;99152.44;;;24.46;77.82
13709;BME280;54933;51.908;7.730;2023-08-01T05:58:27;99149.72;;;24.46;77.74
13709;BME280;54933;51.908;7.730;2023-08-01T06:00:52;99154.38;;;24.45;77.68
13709;BME280;54933;51.908;7.730;2023-08-01T06:03:18;99154.09;;;24.47;77.75
13709;BME280;54933;51.908;7.730;2023-08-01T06:05:43;99155.16;;;24.46;77.78
13709;BME280;54933;51.908;7.730;2023-08-01T06:08:09;99154.38;;;24.45;77.97
13709;BME280;54933;51.908;7.730;2023-08-01T06:10:37;99157.38;;;24.44;77.51
13709;BME280;54933;51.908;7.730;2023-08-01T06:13:02;99156.28;;;24.45;77.84
13709;BME280;54933;51.908;7.730;2023-08-01T06:15:28;99166.03;;;24.46;77.74
13709;BME280;54933;51.908;7.730;2023-08-01T06:17:53;99149.72;;;24.46;77.40
13709;BME280;54933;51.908;7.730;2023-08-01T06:20:18;99152.44;;;24.46;77.89
13709;BME280;54933;51.908;7.730;2023-08-01T06:22:44;99154.38;;;24.45;77.85
13709;BME280;54933;51.908;7.730;2023-08-01T06:25:09;99156.56;;;24.43;78.13
13709;BME280;54933;51.908;7.730;2023-08-01T06:27:34;99160.59;;;24.46;77.83
13709;BME280;54933;51.908;7.730;2023-08-01T06:30:00;99159.00;;;24.45;77.76
13709;BME280;54933;51.908;7.730;2023-08-01T06:32:25;99157.38;;;24.44;77.70
13709;BME280;54933;51.908;7.730;2023-08-01T06:34:51;99170.13;;;24.43;77.80
13709;BME280;54933;51.908;7.730;2023-08-01T06:37:16;99166.59;;;24.43;77.82
13709;BME280;54933;51.908;7.730;2023-08-01T06:39:41;99167.41;;;24.43;77.71
13709;BME280;54933;51.908;7.730;2023-08-01T06:42:06;99169.31;;;24.43;77.67
13709;BME280;54933;51.908;7.730;2023-08-01T06:44:32;99177.44;;;24.43;77.72
13709;BME280;54933;51.908;7.730;2023-08-01T06:46:57;99175.56;;;24.43;77.90
13709;BME280;54933;51.908;7.730;2023-08-01T06:49:22;99178.56;;;24.42;77.60
13709;BME280;54933;51.908;7.730;2023-08-01T06:51:48;99172.31;;;24.41;77.62
13709;BME280;54933;51.908;7.730;2023-08-01T06:54:13;99178.56;;;24.42;77.70
13709;BME280;54933;51.908;7.730;2023-08-01T06:56:38;99181.28;;;24.42;77.78
13709;BME280;54933;51.908;7.730;2023-08-01T06:59:03;99182.88;;;24.43;77.73
13709;BME280;54933;51.908;7.730;2023-08-01T07:01:29;99182.38;;;24.41;77.65
13709;BME280;54933;51.908;7.730;2023-08-01T07:03:54;99181.53;;;24.40;77.62
13709;BME280;54933;51.908;7.730;2023-08-01T07:06:20;99180.72;;;24.40;77.80
13709;BME280;54933;51.908;7.730;2023-08-01T07:08:45;99181.53;;;24.40;77.50
13709;BME280;54933;51.908;7.730;2023-08-01T07:11:11;99192.13;;;24.42;77.50
13709;BME280;54933;51.908;7.730;2023-08-01T07:13:36;99194.31;;;24.40;77.45
13709;BME280;54933;51.908;7.730;2023-08-01T07:16:01;99197.56;;;24.42;77.74
13709;BME280;54933;51.908;7.730;2023-08-01T07:18:27;99198.66;;;24.41;77.20
13709;BME280;54933;51.908;7.730;2023-08-01T07:20:59;99200.56;;;24.40;77.46
13709;BME280;54933;51.908;7.730;2023-08-01T07:23:25;99197.56;;;24.42;77.41
13709;BME280;54933;51.908;7.730;2023-08-01T07:25:50;99191.31;;;24.41;77.40
13709;BME280;54933;51.908;7.730;2023-08-01T07:28:15;99190.22;;;24.42;77.52
13709;BME280;54933;51.908;7.730;2023-08-01T07:30:41;99188.59;;;24.41;77.49
13709;BME280;54933;51.908;7.730;2023-08-01T07:33:06;99185.59;;;24.43;77.59
13709;BME280;54933;51.908;7.730;2023-08-01T07:35:31;99186.69;;;24.42;77.54
13709;BME280;54933;51.908;7.730;2023-08-01T07:37:56;99186.69;;;24.42;77.58
13709;BME280;54933;51.908;7.730;2023-08-01T07:40:22;99189.41;;;24.42;77.53
13709;BME280;54933;51.908;7.730;2023-08-01T07:42:47;99185.59;;;24.43;77.43
13709;BME280;54933;51.908;7.730;2023-08-01T07:45:12;99184.81;;;24.42;77.62
13709;BME280;54933;51.908;7.730;2023-08-01T07:47:37;99193.75;;;24.43;76.94
13709;BME280;54933;51.908;7.730;2023-08-01T07:50:03;99189.69;;;24.45;77.59
13709;BME280;54933;51.908;7.730;2023-08-01T07:52:28;99187.25;;;24.44;77.72
13709;BME280;54933;51.908;7.730;2023-08-01T07:54:53;99189.13;;;24.43;77.66
13709;BME280;54933;51.908;7.730;2023-08-01T07:57:20;99191.03;;;24.43;77.58
13709;BME280;54933;51.908;7.730;2023-08-01T07:59:46;99188.31;;;24.43;77.77
13709;BME280;54933;51.908;7.730;2023-08-01T08:02:11;99199.16;;;24.43;77.75
13709;BME280;54933;51.908;7.730;2023-08-01T08:04:36;99199.16;;;24.43;77.60
13709;BME280;54933;51.908;7.730;2023-08-01T08:07:02;99192.94;;;24.42;77.79
13709;BME280;54933;51.908;7.730;2023-08-01T08:09:27;99200.00;;;24.43;77.70
13709;BME280;54933;51.908;7.730;2023-08-01T08:11:52;99195.09;;;24.45;77.78
13709;BME280;54933;51.908;7.730;2023-08-01T08:14:17;99189.97;;;24.44;78.01
13709;BME280;54933;51.908;7.730;2023-08-01T08:16:45;99184.53;;;24.44;77.74
13709;BME280;54933;51.908;7.730;2023-08-01T08:19:10;99198.63;;;24.46;77.87
13709;BME280;54933;51.908;7.730;2023-08-01T08:21:36;99191.03;;;24.43;77.86
13709;BME280;54933;51.908;7.730;2023-08-01T08:24:01;99200.53;;;24.45;77.67
13709;BME280;54933;51.908;7.730;2023-08-01T08:26:26;99200.81;;;24.44;78.04
13709;BME280;54933;51.908;7.730;2023-08-01T08:28:51;99183.69;;;24.43;77.75
13709;BME280;54933;51.908;7.730;2023-08-01T08:31:17;99183.69;;;24.43;77.90
13709;BME280;54933;51.908;7.730;2023-08-01T08:33:42;99195.38;;;24.44;77.89
13709;BME280;54933;51.908;7.730;2023-08-01T08:36:08;99186.69;;;24.42;77.94
13709;BME280;54933;51.908;7.730;2023-08-01T08:38:33;99189.69;;;24.40;77.71
13709;BME280;54933;51.908;7.730;2023-08-01T08:41:08;99197.56;;;24.42;77.81
13709;BME280;54933;51.908;7.730;2023-08-01T08:43:35;99203.00;;;24.42;77.87
13709;BME280;54933;51.908;7.730;2023-08-01T08:46:02;99200.56;;;24.40;78.23
13709;BME280;54933;51.908;7.730;2023-08-01T08:48:28;99200.28;;;24.42;78.03
13709;BME280;54933;51.908;7.730;2023-08-01T08:50:57;99206.81;;;24.41;77.80
13709;BME280;54933;51.908;7.730;2023-08-01T08:53:23;99203.00;;;24.42;77.83
13709;BME280;54933;51.908;7.730;2023-08-01T08:55:49;99209.25;;;24.42;77.86
13709;BME280;54933;51.908;7.730;2023-08-01T08:58:16;99200.28;;;24.42;77.80
13709;BME280;54933;51.908;7.730;2023-08-01T09:00:41;99189.13;;;24.43;77.93
13709;BME280;54933;51.908;7.730;2023-08-01T09:03:07;99199.16;;;24.43;77.71
13709;BME280;54933;51.908;7.730;2023-08-01T09:06:02;99197.56;;;24.42;77.94
13709;BME280;54933;51.908;7.730;2023-08-01T09:08:29;99197.56;;;24.42;77.85
13709;BME280;54933;51.908;7.730;2023-08-01T09:10:57;99193.22;;;24.41;77.84
13709;BME280;54933;51.908;7.730;2023-08-01T09:13:22;99188.88;;;24.40;78.01
13709;BME280;54933;51.908;7.730;2023-08-01T09:15:48;99207.88;;;24.40;77.97
13709;BME280;54933;51.908;7.730;2023-08-01T09:18:13;99206.81;;;24.41;77.87
13709;BME280;54933;51.908;7.730;2023-08-01T09:20:48;99205.16;;;24.40;78.01
13709;BME280;54933;51.908;7.730;2023-08-01T09:23:15;99203.53;;;24.44;77.85
13709;BME280;54933;51.908;7.730;2023-08-01T09:25:41;99202.16;;;24.41;78.01
13709;BME280;54933;51.908;7.730;2023-08-01T09:28:20;99199.16;;;24.43;78.07
13709;BME280;54933;51.908;7.730;2023-08-01T09:30:53;99193.75;;;24.43;78.24
13709;BME280;54933;51.908;7.730;2023-08-01T09:33:23;99197.28;;;24.43;77.92
13709;BME280;54933;51.908;7.730;2023-08-01T09:35:52;99192.66;;;24.44;78.35
13709;BME280;54933;51.908;7.730;2023-08-01T09:38:17;99189.13;;;24.43;77.99
13709;BME280;54933;51.908;7.730;2023-08-01T09:40:44;99195.38;;;24.44;78.29
13709;BME280;54933;51.908;7.730;2023-08-01T09:43:13;99187.25;;;24.44;78.22
13709;BME280;54933;51.908;7.730;2023-08-01T09:45:52;99194.56;;;24.43;78.23
13709;BME280;54933;51.908;7.730;2023-08-01T09:48:30;99192.38;;;24.45;78.39
13709;BME280;54933;51.908;7.730;2023-08-01T09:53:35;99192.66;;;24.44;78.48
13709;BME280;54933;51.908;7.730;2023-08-01T09:56:02;99184.53;;;24.44;78.36
13709;BME280;54933;51.908;7.730;2023-08-01T09:58:34;99183.44;;;24.45;78.47
13709;BME280;54933;51.908;7.730;2023-08-01T10:01:00;99195.38;;;24.44;78.83
13709;BME280;54933;51.908;7.730;2023-08-01T10:03:27;99193.19;;;24.46;78.34
13709;BME280;54933;51.908;7.730;2023-08-01T10:05:53;99193.19;;;24.46;78.43
13709;BME280;54933;51.908;7.730;2023-08-01T10:08:20;99186.97;;;24.45;78.39
13709;BME280;54933;51.908;7.730;2023-08-01T10:10:47;99192.13;;;24.47;78.51
13709;BME280;54933;51.908;7.730;2023-08-01T10:13:13;99190.47;;;24.46;78.38
13709;BME280;54933;51.908;7.730;2023-08-01T10:15:39;99199.16;;;24.48;78.45
13709;BME280;54933;51.908;7.730;2023-08-01T10:18:04;99200.25;;;24.47;78.54
13709;BME280;54933;51.908;7.730;2023-08-01T10:20:30;99188.28;;;24.48;78.46
13709;BME280;54933;51.908;7.730;2023-08-01T10:22:56;99199.44;;;24.46;78.54
13709;BME280;54933;51.908;7.730;2023-08-01T10:25:23;99204.03;;;24.46;78.60
13709;BME280;54933;51.908;7.730;2023-08-01T10:28:02;99216.56;;;24.47;78.52
13709;BME280;54933;51.908;7.730;2023-08-01T10:30:28;99221.16;;;24.46;78.54
13709;BME280;54933;51.908;7.730;2023-08-01T10:32:57;99221.97;;;24.47;78.69
13709;BME280;54933;51.908;7.730;2023-08-01T10:35:36;99236.91;;;24.44;78.43
13709;BME280;54933;51.908;7.730;2023-08-01T10:38:10;99240.44;;;24.45;78.54
13709;BME280;54933;51.908;7.730;2023-08-01T10:40:41;99246.69;;;24.45;78.50
13709;BME280;54933;51.908;7.730;2023-08-01T10:43:23;99227.97;;;24.44;78.56
13709;BME280;54933;51.908;7.730;2023-08-01T10:46:00;99233.91;;;24.46;78.47
13709;BME280;54933;51.908;7.730;2023-08-01T10:48:26;99225.25;;;24.44;78.14
13709;BME280;54933;51.908;7.730;2023-08-01T10:50:56;99233.41;;;24.44;78.39
13709;BME280;54933;51.908;7.730;2023-08-01T10:53:24;99231.47;;;24.44;78.37
13709;BME280;54933;51.908;7.730;2023-08-01T10:55:49;99239.34;;;24.46;78.36
13709;BME280;54933;51.908;7.730;2023-08-01T10:58:15;99227.97;;;24.44;78.39
13709;BME280;54933;51.908;7.730;2023-08-01T11:00:43;99226.88;;;24.45;78.17
13709;BME280;54933;51.908;7.730;2023-08-01T11:03:09;99229.59;;;24.45;78.10
13709;BME280;54933;51.908;7.730;2023-08-01T11:05:34;99233.13;;;24.45;77.89
13709;BME280;54933;51.908;7.730;2023-08-01T11:08:01;99231.19;;;24.46;78.27
13709;BME280;54933;51.908;7.730;2023-08-01T11:10:31;99231.19;;;24.46;77.97
13709;BME280;54933;51.908;7.730;2023-08-01T11:12:57;99233.41;;;24.44;77.91
13709;BME280;54933;51.908;7.730;2023-08-01T11:15:23;99234.19;;;24.44;78.06
13709;BME280;54933;51.908;7.730;2023-08-01T11:17:50;99229.59;;;24.45;78.21
13709;BME280;54933;51.908;7.730;2023-08-01T11:20:18;99230.69;;;24.44;78.11
13709;BME280;54933;51.908;7.730;2023-08-01T11:22:56;99232.03;;;24.46;78.28
13709;BME280;54933;51.908;7.730;2023-08-01T11:25:36;99226.59;;;24.46;78.11
13709;BME280;54933;51.908;7.730;2023-08-01T11:28:09;99232.03;;;24.46;78.14
13709;BME280;54933;51.908;7.730;2023-08-01T11:30:36;99229.31;;;24.46;78.10
13709;BME280;54933;51.908;7.730;2023-08-01T11:33:02;99230.13;;;24.47;78.33
13709;BME280;54933;51.908;7.730;2023-08-01T11:35:29;99238.56;;;24.45;78.31
13709;BME280;54933;51.908;7.730;2023-08-01T11:37:55;99232.03;;;24.46;78.17
13709;BME280;54933;51.908;7.730;2023-08-01T11:40:20;99232.84;;;24.47;78.31
13709;BME280;54933;51.908;7.730;2023-08-01T11:42:49;99243.72;;;24.47;78.26
13709;BME280;54933;51.908;7.730;2023-08-01T11:45:18;99244.53;;;24.47;78.44
13709;BME280;54933;51.908;7.730;2023-08-01T11:47:47;99247.25;;;24.47;78.20
13709;BME280;54933;51.908;7.730;2023-08-01T11:50:13;99250.75;;;24.48;78.31
13709;BME280;54933;51.908;7.730;2023-08-01T11:52:38;99257.00;;;24.48;78.43
13709;BME280;54933;51.908;7.730;2023-08-01T11:55:04;99261.63;;;24.48;78.40
13709;BME280;54933;51.908;7.730;2023-08-01T11:57:29;99262.44;;;24.48;78.35
13709;BME280;54933;51.908;7.730;2023-08-01T11:59:56;99273.31;;;24.48;78.53
13709;BME280;54933;51.908;7.730;2023-08-01T12:02:26;99279.56;;;24.49;78.49
13709;BME280;54933;51.908;7.730;2023-08-01T12:04:52;99269.47;;;24.49;78.46
13709;BME280;54933;51.908;7.730;2023-08-01T12:07:18;99272.47;;;24.48;78.59
13709;BME280;54933;51.908;7.730;2023-08-01T12:09:46;99284.97;;;24.49;78.54
13709;BME280;54933;51.908;7.730;2023-08-01T12:12:19;99278.72;;;24.48;78.91
13709;BME280;54933;51.908;7.730;2023-08-01T12:14:44;99284.16;;;24.48;78.52
13709;BME280;54933;51.908;7.730;2023-08-01T12:17:10;99286.88;;;24.48;78.54
13709;BME280;54933;51.908;7.730;2023-08-01T12:19:35;99298.56;;;24.49;78.54
13709;BME280;54933;51.908;7.730;2023-08-01T12:22:00;99296.13;;;24.47;78.69
13709;BME280;54933;51.908;7.730;2023-08-01T12:24:25;99300.47;;;24.48;78.56
13709;BME280;54933;51.908;7.730;2023-08-01T12:26:51;99299.63;;;24.48;78.69
13709;BME280;54933;51.908;7.730;2023-08-01T12:29:16;99301.28;;;24.49;78.46
13709;BME280;54933;51.908;7.730;2023-08-01T12:31:41;99299.63;;;24.48;78.53
13709;BME280;54933;51.908;7.730;2023-08-01T12:34:07;99305.88;;;24.48;78.39
13709;BME280;54933;51.908;7.730;2023-08-01T12:36:32;99310.22;;;24.49;78.36
13709;BME280;54933;51.908;7.730;2023-08-01T12:38:57;99312.16;;;24.49;78.27
13709;BME280;54933;51.908;7.730;2023-08-01T12:41:22;99317.56;;;24.49;78.49
13709;BME280;54933;51.908;7.730;2023-08-01T12:43:48;99317.56;;;24.49;78.29
13709;BME280;54933;51.908;7.730;2023-08-01T12:46:13;99315.94;;;24.48;78.34
13709;BME280;54933;51.908;7.730;2023-08-01T12:48:38;99310.50;;;24.48;78.35
13709;BME280;54933;51.908;7.730;2023-08-01T12:51:03;99312.16;;;24.49;78.39
13709;BME280;54933;51.908;7.730;2023-08-01T12:53:29;99315.94;;;24.48;78.08
13709;BME280;54933;51.908;7.730;2023-08-01T12:55:54;99295.84;;;24.49;78.21
13709;BME280;54933;51.908;7.730;2023-08-01T12:58:19;99305.88;;;24.48;78.03